sensor_id;sensor_type;location;lat;lon;timestamp;pressure;altitude;pressure_sealevel;temperature;humidity
13080;BME280;6606;49.154;9.280;2022-12-18T00:01:56;100955.63;;;-8.98;100.00
13080;BME280;6606;49.154;9.280;2022-12-18T00:04:38;100953.94;;;-8.98;100.00
13080;BME280;6606;49.154;9.280;2022-12-18T00:07:20;100954.09;;;-8.95;100.00
13080;BME280;6606;49.154;9.280;2022-12-18T00:10:03;100955.56;;;-9.00;100.00
13080;BME280;6606;49.154;9.280;2022-12-18T00:12:44;100957.47;;;-8.96;100.00
13080;BME280;6606;49.154;9.280;2022-12-18T00:15:28;100954.81;;;-8.97;100.00
13080;BME280;6606;49.154;9.280;2022-12-18T00:18:09;100953.06;;;-8.98;100.00
13080;BME280;6606;49.154;9.280;2022-12-18T00:20:51;100961.50;;;-9.01;100.00
13080;BME280;6606;49.154;9.280;2022-12-18T00:23:34;100958.06;;;-9.01;100.00
13080;BME280;6606;49.154;9.280;2022-12-18T00:26:19;100962.47;;;-8.99;100.00
13080;BME280;6606;49.154;9.280;2022-12-18T00:29:05;100957.19;;;-9.02;100.00
13080;BME280;6606;49.154;9.280;2022-12-18T00:31:49;100967.47;;;-9.02;100.00
13080;BME280;6606;49.154;9.280;2022-12-18T00:34:31;100965.53;;;-9.06;100.00
13080;BME280;6606;49.154;9.280;2022-12-18T00:37:12;100962.97;;;-9.06;100.00
13080;BME280;6606;49.154;9.280;2022-12-18T00:39:54;100949.31;;;-9.05;100.00
13080;BME280;6606;49.154;9.280;2022-12-18T00:42:36;100947.41;;;-9.09;100.00
13080;BME280;6606;49.154;9.280;2022-12-18T00:45:35;100950.81;;;-9.10;100.00
13080;BME280;6606;49.154;9.280;2022-12-18T00:48:18;100952.47;;;-9.11;100.00
13080;BME280;6606;49.154;9.280;2022-12-18T00:51:00;100947.56;;;-9.06;100.00
13080;BME280;6606;49.154;9.280;2022-12-18T00:53:41;100952.94;;;-9.01;100.00
13080;BME280;6606;49.154;9.280;2022-12-18T00:56:24;100955.00;;;-8.94;100.00
13080;BME280;6606;49.154;9.280;2022-12-18T00:59:07;100970.47;;;-8.93;100.00
13080;BME280;6606;49.154;9.280;2022-12-18T01:01:48;100971.19;;;-8.95;100.00
13080;BME280;6606;49.154;9.280;2022-12-18T01:04:32;100969.66;;;-8.92;100.00
13080;BME280;6606;49.154;9.280;2022-12-18T01:07:14;100967.91;;;-8.93;100.00
13080;BME280;6606;49.154;9.280;2022-12-18T01:09:56;100955.28;;;-8.88;100.00
13080;BME280;6606;49.154;9.280;2022-12-18T01:12:38;100956.16;;;-8.88;100.00
13080;BME280;6606;49.154;9.280;2022-12-18T01:15:19;100953.50;;;-8.89;100.00
13080;BME280;6606;49.154;9.280;2022-12-18T01:18:01;100966.72;;;-8.81;100.00
13080;BME280;6606;49.154;9.280;2022-12-18T01:20:44;100961.75;;;-8.78;100.00
13080;BME280;6606;49.154;9.280;2022-12-18T01:23:26;100966.22;;;-8.74;100.00
13080;BME280;6606;49.154;9.280;2022-12-18T01:26:10;100973.94;;;-8.74;100.00
13080;BME280;6606;49.154;9.280;2022-12-18T01:28:53;100967.19;;;-8.72;100.00
13080;BME280;6606;49.154;9.280;2022-12-18T01:31:37;100971.44;;;-8.73;100.00
13080;BME280;6606;49.154;9.280;2022-12-18T01:34:19;100971.22;;;-8.77;100.00
13080;BME280;6606;49.154;9.280;2022-12-18T01:37:03;100979.06;;;-8.74;100.00
13080;BME280;6606;49.154;9.280;2022-12-18T01:39:45;100980.81;;;-8.73;100.00
13080;BME280;6606;49.154;9.280;2022-12-18T01:42:27;100982.59;;;-8.72;100.00
13080;BME280;6606;49.154;9.280;2022-12-18T01:45:23;100975.69;;;-8.73;100.00
13080;BME280;6606;49.154;9.280;2022-12-18T01:48:06;100970.41;;;-8.76;100.00
13080;BME280;6606;49.154;9.280;2022-12-18T01:50:50;100970.41;;;-8.76;100.00
13080;BME280;6606;49.154;9.280;2022-12-18T01:53:34;100966.00;;;-8.79;100.00
13080;BME280;6606;49.154;9.280;2022-12-18T01:56:18;100966.56;;;-8.85;100.00
13080;BME280;6606;49.154;9.280;2022-12-18T01:59:02;100958.28;;;-8.97;100.00
13080;BME280;6606;49.154;9.280;2022-12-18T02:01:46;100966.72;;;-8.99;100.00
13080;BME280;6606;49.154;9.280;2022-12-18T02:04:28;100977.16;;;-8.96;100.00
13080;BME280;6606;49.154;9.280;2022-12-18T02:07:16;100980.34;;;-9.00;100.00
13080;BME280;6606;49.154;9.280;2022-12-18T02:10:03;100975.22;;;-9.00;100.00
13080;BME280;6606;49.154;9.280;2022-12-18T02:12:51;100988.84;;;-9.19;100.00
13080;BME280;6606;49.154;9.280;2022-12-18T02:15:38;100996.94;;;-9.12;100.00
13080;BME280;6606;49.154;9.280;2022-12-18T02:18:25;100964.41;;;-9.11;100.00
13080;BME280;6606;49.154;9.280;2022-12-18T02:21:13;100963.47;;;-9.13;100.00
13080;BME280;6606;49.154;9.280;2022-12-18T02:24:12;100976.53;;;-9.09;100.00
13080;BME280;6606;49.154;9.280;2022-12-18T02:27:00;100983.69;;;-9.19;100.00
13080;BME280;6606;49.154;9.280;2022-12-18T02:29:49;100974.47;;;-9.16;100.00
13080;BME280;6606;49.154;9.280;2022-12-18T02:32:34;100969.25;;;-9.17;100.00
13080;BME280;6606;49.154;9.280;2022-12-18T02:35:22;100971.97;;;-9.14;100.00
13080;BME280;6606;49.154;9.280;2022-12-18T02:38:07;100991.69;;;-9.13;100.00
13080;BME280;6606;49.154;9.280;2022-12-18T02:40:51;100997.66;;;-9.14;100.00
13080;BME280;6606;49.154;9.280;2022-12-18T02:43:37;100994.44;;;-9.10;100.00
13080;BME280;6606;49.154;9.280;2022-12-18T02:46:27;100991.94;;;-9.09;100.00
13080;BME280;6606;49.154;9.280;2022-12-18T02:49:21;100996.19;;;-9.09;100.00
13080;BME280;6606;49.154;9.280;2022-12-18T02:52:13;100997.88;;;-9.10;100.00
13080;BME280;6606;49.154;9.280;2022-12-18T02:55:02;101006.91;;;-9.18;100.00
13080;BME280;6606;49.154;9.280;2022-12-18T02:57:52;101000.69;;;-9.21;100.00
13080;BME280;6606;49.154;9.280;2022-12-18T03:00:43;100990.44;;;-9.21;100.00
13080;BME280;6606;49.154;9.280;2022-12-18T03:03:31;100993.00;;;-9.21;100.00
13080;BME280;6606;49.154;9.280;2022-12-18T03:06:21;100988.53;;;-9.25;100.00
13080;BME280;6606;49.154;9.280;2022-12-18T03:09:08;100990.00;;;-9.31;100.00
13080;BME280;6606;49.154;9.280;2022-12-18T03:11:54;100980.59;;;-9.30;100.00
13080;BME280;6606;49.154;9.280;2022-12-18T03:15:00;100986.59;;;-9.30;100.00
13080;BME280;6606;49.154;9.280;2022-12-18T03:17:48;100981.41;;;-9.31;100.00
13080;BME280;6606;49.154;9.280;2022-12-18T03:20:34;100978.03;;;-9.30;100.00
13080;BME280;6606;49.154;9.280;2022-12-18T03:23:18;100979.78;;;-9.29;100.00
13080;BME280;6606;49.154;9.280;2022-12-18T03:26:09;100992.56;;;-9.31;100.00
13080;BME280;6606;49.154;9.280;2022-12-18T03:28:56;100980.59;;;-9.30;100.00
13080;BME280;6606;49.154;9.280;2022-12-18T03:31:42;100987.47;;;-9.29;100.00
13080;BME280;6606;49.154;9.280;2022-12-18T03:34:30;100990.88;;;-9.30;100.00
13080;BME280;6606;49.154;9.280;2022-12-18T03:37:16;100990.97;;;-9.28;100.00
13080;BME280;6606;49.154;9.280;2022-12-18T03:39:58;100987.28;;;-9.34;100.00
13080;BME280;6606;49.154;9.280;2022-12-18T03:42:46;100980.88;;;-9.42;100.00
13080;BME280;6606;49.154;9.280;2022-12-18T03:45:34;100998.25;;;-9.36;100.00
13080;BME280;6606;49.154;9.280;2022-12-18T03:48:22;100988.94;;;-9.34;100.00
13080;BME280;6606;49.154;9.280;2022-12-18T03:51:10;100998.47;;;-9.32;100.00
13080;BME280;6606;49.154;9.280;2022-12-18T03:53:57;101000.09;;;-9.34;100.00
13080;BME280;6606;49.154;9.280;2022-12-18T03:56:47;100988.19;;;-9.32;100.00
13080;BME280;6606;49.154;9.280;2022-12-18T03:59:31;100994.78;;;-9.37;100.00
13080;BME280;6606;49.154;9.280;2022-12-18T04:02:14;100987.91;;;-9.38;100.00
13080;BME280;6606;49.154;9.280;2022-12-18T04:05:00;100986.47;;;-9.49;100.00
13080;BME280;6606;49.154;9.280;2022-12-18T04:07:47;101003.16;;;-9.41;100.00
13080;BME280;6606;49.154;9.280;2022-12-18T04:10:29;101003.31;;;-9.38;100.00
13080;BME280;6606;49.154;9.280;2022-12-18T04:13:12;100998.91;;;-9.40;100.00
13080;BME280;6606;49.154;9.280;2022-12-18T04:16:03;101002.34;;;-9.40;100.00
13080;BME280;6606;49.154;9.280;2022-12-18T04:18:44;101001.41;;;-9.42;100.00
13080;BME280;6606;49.154;9.280;2022-12-18T04:21:28;101012.38;;;-9.44;100.00
13080;BME280;6606;49.154;9.280;2022-12-18T04:24:11;101009.00;;;-9.43;100.00
13080;BME280;6606;49.154;9.280;2022-12-18T04:26:59;101012.91;;;-9.50;100.00
13080;BME280;6606;49.154;9.280;2022-12-18T04:29:46;101008.44;;;-9.54;100.00
13080;BME280;6606;49.154;9.280;2022-12-18T04:32:29;101004.44;;;-9.49;100.00
13080;BME280;6606;49.154;9.280;2022-12-18T04:35:11;101013.16;;;-9.45;100.00
13080;BME280;6606;49.154;9.280;2022-12-18T04:37:56;101014.84;;;-9.46;100.00
13080;BME280;6606;49.154;9.280;2022-12-18T04:40:39;101011.31;;;-9.48;100.00
13080;BME280;6606;49.154;9.280;2022-12-18T04:43:28;101000.66;;;-9.56;100.00
13080;BME280;6606;49.154;9.280;2022-12-18T04:46:09;101007.63;;;-9.53;100.00
13080;BME280;6606;49.154;9.280;2022-12-18T04:48:51;101011.31;;;-9.48;100.00
13080;BME280;6606;49.154;9.280;2022-12-18T04:51:33;101009.72;;;-9.46;100.00
13080;BME280;6606;49.154;9.280;2022-12-18T04:54:15;101009.72;;;-9.46;100.00
13080;BME280;6606;49.154;9.280;2022-12-18T04:56:58;101005.72;;;-9.41;100.00
13080;BME280;6606;49.154;9.280;2022-12-18T04:59:40;101009.81;;;-9.44;100.00
13080;BME280;6606;49.154;9.280;2022-12-18T05:02:22;101002.84;;;-9.47;100.00
13080;BME280;6606;49.154;9.280;2022-12-18T05:05:06;101006.69;;;-9.39;100.00
13080;BME280;6606;49.154;9.280;2022-12-18T05:07:47;100999.78;;;-9.40;100.00
13080;BME280;6606;49.154;9.280;2022-12-18T05:10:29;101005.56;;;-9.44;100.00
13080;BME280;6606;49.154;9.280;2022-12-18T05:13:12;100999.47;;;-9.46;100.00
13080;BME280;6606;49.154;9.280;2022-12-18T05:15:55;101002.03;;;-9.46;100.00
13080;BME280;6606;49.154;9.280;2022-12-18T05:18:37;101015.34;;;-9.53;100.00
13080;BME280;6606;49.154;9.280;2022-12-18T05:21:19;101008.50;;;-9.53;100.00
13080;BME280;6606;49.154;9.280;2022-12-18T05:24:00;101011.81;;;-9.55;100.00
13080;BME280;6606;49.154;9.280;2022-12-18T05:26:42;101015.66;;;-9.63;100.00
13080;BME280;6606;49.154;9.280;2022-12-18T05:29:25;101011.75;;;-9.73;100.00
13080;BME280;6606;49.154;9.280;2022-12-18T05:32:07;101031.53;;;-9.70;100.00
13080;BME280;6606;49.154;9.280;2022-12-18T05:34:49;101023.84;;;-9.70;100.00
13080;BME280;6606;49.154;9.280;2022-12-18T05:37:30;101031.59;;;-9.69;100.00
13080;BME280;6606;49.154;9.280;2022-12-18T05:40:12;101025.59;;;-9.69;100.00
13080;BME280;6606;49.154;9.280;2022-12-18T05:42:54;101030.72;;;-9.69;100.00
13080;BME280;6606;49.154;9.280;2022-12-18T05:45:38;101035.53;;;-9.76;100.00
13080;BME280;6606;49.154;9.280;2022-12-18T05:48:21;101032.16;;;-9.75;100.00
13080;BME280;6606;49.154;9.280;2022-12-18T05:51:04;101033.22;;;-9.71;100.00
13080;BME280;6606;49.154;9.280;2022-12-18T05:53:47;101037.28;;;-9.75;100.00
13080;BME280;6606;49.154;9.280;2022-12-18T05:56:29;101044.75;;;-9.79;100.00
13080;BME280;6606;49.154;9.280;2022-12-18T05:59:11;101042.44;;;-9.75;100.00
13080;BME280;6606;49.154;9.280;2022-12-18T06:01:54;101045.28;;;-9.85;100.00
13080;BME280;6606;49.154;9.280;2022-12-18T06:04:36;101038.56;;;-9.83;100.00
13080;BME280;6606;49.154;9.280;2022-12-18T06:07:17;101042.28;;;-9.78;100.00
13080;BME280;6606;49.154;9.280;2022-12-18T06:09:59;101039.63;;;-9.79;100.00
13080;BME280;6606;49.154;9.280;2022-12-18T06:12:41;101043.69;;;-9.83;100.00
13080;BME280;6606;49.154;9.280;2022-12-18T06:15:22;101042.09;;;-9.81;100.00
13080;BME280;6606;49.154;9.280;2022-12-18T06:18:06;101038.91;;;-9.77;100.00
13080;BME280;6606;49.154;9.280;2022-12-18T06:20:54;101039.09;;;-9.74;100.00
13080;BME280;6606;49.154;9.280;2022-12-18T06:23:36;101057.09;;;-9.72;100.00
13080;BME280;6606;49.154;9.280;2022-12-18T06:26:18;101049.50;;;-9.70;100.00
13080;BME280;6606;49.154;9.280;2022-12-18T06:29:00;101052.69;;;-9.75;100.00
13080;BME280;6606;49.154;9.280;2022-12-18T06:31:41;101051.09;;;-9.73;100.00
13080;BME280;6606;49.154;9.280;2022-12-18T06:34:24;101049.16;;;-9.77;100.00
13080;BME280;6606;49.154;9.280;2022-12-18T06:37:06;101047.56;;;-9.75;100.00
13080;BME280;6606;49.154;9.280;2022-12-18T06:39:48;101055.25;;;-9.75;100.00
13080;BME280;6606;49.154;9.280;2022-12-18T06:42:30;101053.66;;;-9.73;100.00
13080;BME280;6606;49.154;9.280;2022-12-18T06:45:12;101048.78;;;-9.68;100.00
13080;BME280;6606;49.154;9.280;2022-12-18T06:47:54;101050.38;;;-9.70;100.00
13080;BME280;6606;49.154;9.280;2022-12-18T06:50:37;101054.06;;;-9.65;100.00
13080;BME280;6606;49.154;9.280;2022-12-18T06:53:18;101049.81;;;-9.64;100.00
13080;BME280;6606;49.154;9.280;2022-12-18T06:56:01;101056.88;;;-9.60;100.00
13080;BME280;6606;49.154;9.280;2022-12-18T06:58:43;101058.47;;;-9.62;100.00
13080;BME280;6606;49.154;9.280;2022-12-18T07:01:25;101075.38;;;-9.66;100.00
13080;BME280;6606;49.154;9.280;2022-12-18T07:04:07;101086.28;;;-9.70;100.00
13080;BME280;6606;49.154;9.280;2022-12-18T07:06:50;101087.16;;;-9.69;100.00
13080;BME280;6606;49.154;9.280;2022-12-18T07:09:31;101085.41;;;-9.70;100.00
13080;BME280;6606;49.154;9.280;2022-12-18T07:12:13;101085.72;;;-9.64;100.00
13080;BME280;6606;49.154;9.280;2022-12-18T07:14:55;101085.56;;;-9.67;100.00
13080;BME280;6606;49.154;9.280;2022-12-18T07:17:37;101089.44;;;-9.59;100.00
13080;BME280;6606;49.154;9.280;2022-12-18T07:20:18;101096.31;;;-9.58;100.00
13080;BME280;6606;49.154;9.280;2022-12-18T07:23:02;101094.56;;;-9.59;100.00
13080;BME280;6606;49.154;9.280;2022-12-18T07:25:45;101103.38;;;-9.54;100.00
13080;BME280;6606;49.154;9.280;2022-12-18T07:28:27;101096.97;;;-9.46;100.00
13080;BME280;6606;49.154;9.280;2022-12-18T07:31:10;101111.66;;;-9.43;100.00
13080;BME280;6606;49.154;9.280;2022-12-18T07:33:53;101102.78;;;-9.34;100.00
13080;BME280;6606;49.154;9.280;2022-12-18T07:36:34;101108.78;;;-9.33;100.00
13080;BME280;6606;49.154;9.280;2022-12-18T07:39:17;101116.72;;;-9.28;100.00
13080;BME280;6606;49.154;9.280;2022-12-18T07:41:59;101113.34;;;-9.27;100.00
13080;BME280;6606;49.154;9.280;2022-12-18T07:44:58;101107.50;;;-9.25;100.00
13080;BME280;6606;49.154;9.280;2022-12-18T07:47:40;101107.91;;;-9.17;100.00
13080;BME280;6606;49.154;9.280;2022-12-18T07:50:22;101112.72;;;-9.07;100.00
13080;BME280;6606;49.154;9.280;2022-12-18T07:53:04;101118.25;;;-8.99;100.00
13080;BME280;6606;49.154;9.280;2022-12-18T07:55:47;101109.00;;;-8.96;100.00
13080;BME280;6606;49.154;9.280;2022-12-18T07:58:29;101103.59;;;-8.84;100.00
13080;BME280;6606;49.154;9.280;2022-12-18T08:01:11;101113.63;;;-8.72;100.00
13080;BME280;6606;49.154;9.280;2022-12-18T08:03:53;101122.03;;;-8.58;100.00
13080;BME280;6606;49.154;9.280;2022-12-18T08:06:35;101117.28;;;-8.51;100.00
13080;BME280;6606;49.154;9.280;2022-12-18T08:09:17;101119.16;;;-8.47;100.00
13080;BME280;6606;49.154;9.280;2022-12-18T08:12:00;101124.69;;;-8.39;100.00
13080;BME280;6606;49.154;9.280;2022-12-18T08:14:41;101124.16;;;-8.32;100.00
13080;BME280;6606;49.154;9.280;2022-12-18T08:17:23;101121.97;;;-8.24;100.00
13080;BME280;6606;49.154;9.280;2022-12-18T08:20:06;101105.16;;;-8.18;100.00
13080;BME280;6606;49.154;9.280;2022-12-18T08:22:47;101110.81;;;-8.07;100.00
13080;BME280;6606;49.154;9.280;2022-12-18T08:25:30;101119.94;;;-7.96;100.00
13080;BME280;6606;49.154;9.280;2022-12-18T08:28:17;101108.94;;;-7.74;100.00
13080;BME280;6606;49.154;9.280;2022-12-18T08:30:58;101118.41;;;-7.55;100.00
13080;BME280;6606;49.154;9.280;2022-12-18T08:33:41;101113.13;;;-7.38;100.00
13080;BME280;6606;49.154;9.280;2022-12-18T08:36:23;101114.66;;;-7.24;100.00
13080;BME280;6606;49.154;9.280;2022-12-18T08:39:05;101113.16;;;-6.99;100.00
13080;BME280;6606;49.154;9.280;2022-12-18T08:41:47;101114.91;;;-6.79;100.00
13080;BME280;6606;49.154;9.280;2022-12-18T08:44:44;101121.59;;;-6.63;100.00
13080;BME280;6606;49.154;9.280;2022-12-18T08:47:26;101109.06;;;-6.54;100.00
13080;BME280;6606;49.154;9.280;2022-12-18T08:50:09;101111.50;;;-6.16;100.00
13080;BME280;6606;49.154;9.280;2022-12-18T08:52:52;101111.41;;;-5.97;100.00
13080;BME280;6606;49.154;9.280;2022-12-18T08:55:33;101123.56;;;-5.93;100.00
13080;BME280;6606;49.154;9.280;2022-12-18T08:58:15;101115.19;;;-5.87;100.00
13080;BME280;6606;49.154;9.280;2022-12-18T09:01:01;101112.81;;;-5.60;100.00
13080;BME280;6606;49.154;9.280;2022-12-18T09:03:43;101097.16;;;-5.18;100.00
13080;BME280;6606;49.154;9.280;2022-12-18T09:06:29;101085.97;;;-5.17;100.00
13080;BME280;6606;49.154;9.280;2022-12-18T09:09:11;101087.00;;;-5.36;100.00
13080;BME280;6606;49.154;9.280;2022-12-18T09:11:52;101081.84;;;-5.36;100.00
13080;BME280;6606;49.154;9.280;2022-12-18T09:14:34;101079.97;;;-5.16;100.00
13080;BME280;6606;49.154;9.280;2022-12-18T09:17:18;101082.53;;;-4.92;100.00
13080;BME280;6606;49.154;9.280;2022-12-18T09:20:00;101082.41;;;-4.71;100.00
13080;BME280;6606;49.154;9.280;2022-12-18T09:22:41;101079.25;;;-4.88;100.00
13080;BME280;6606;49.154;9.280;2022-12-18T09:25:23;101078.94;;;-4.72;100.00
13080;BME280;6606;49.154;9.280;2022-12-18T09:28:06;101075.88;;;-4.34;100.00
13080;BME280;6606;49.154;9.280;2022-12-18T09:30:49;101079.00;;;-4.45;100.00
13080;BME280;6606;49.154;9.280;2022-12-18T09:33:32;101069.13;;;-4.31;100.00
13080;BME280;6606;49.154;9.280;2022-12-18T09:36:18;101062.97;;;-4.07;100.00
13080;BME280;6606;49.154;9.280;2022-12-18T09:39:00;101057.56;;;-4.13;100.00
13080;BME280;6606;49.154;9.280;2022-12-18T09:41:44;101052.28;;;-4.18;100.00
13080;BME280;6606;49.154;9.280;2022-12-18T09:44:29;101049.50;;;-3.95;100.00
13080;BME280;6606;49.154;9.280;2022-12-18T09:47:14;101060.25;;;-3.83;100.00
13080;BME280;6606;49.154;9.280;2022-12-18T09:50:04;101070.16;;;-3.70;100.00
13080;BME280;6606;49.154;9.280;2022-12-18T09:52:49;101063.50;;;-3.62;100.00
13080;BME280;6606;49.154;9.280;2022-12-18T09:55:34;101054.53;;;-3.43;100.00
13080;BME280;6606;49.154;9.280;2022-12-18T09:58:22;101051.06;;;-3.43;100.00
13080;BME280;6606;49.154;9.280;2022-12-18T10:01:09;101050.88;;;-3.19;100.00
13080;BME280;6606;49.154;9.280;2022-12-18T10:03:52;101049.81;;;-3.26;100.00
13080;BME280;6606;49.154;9.280;2022-12-18T10:06:41;101054.00;;;-2.99;100.00
13080;BME280;6606;49.154;9.280;2022-12-18T10:09:28;101053.25;;;-2.95;100.00
13080;BME280;6606;49.154;9.280;2022-12-18T10:12:19;101055.94;;;-2.92;100.00
13080;BME280;6606;49.154;9.280;2022-12-18T10:15:07;101061.16;;;-2.57;100.00
13080;BME280;6606;49.154;9.280;2022-12-18T10:17:58;101046.91;;;-2.38;100.00
13080;BME280;6606;49.154;9.280;2022-12-18T10:20:45;101047.13;;;-2.66;100.00
13080;BME280;6606;49.154;9.280;2022-12-18T10:23:33;101055.88;;;-2.26;100.00
13080;BME280;6606;49.154;9.280;2022-12-18T10:26:21;101059.00;;;-2.04;100.00
13080;BME280;6606;49.154;9.280;2022-12-18T10:29:08;101063.81;;;-1.83;100.00
13080;BME280;6606;49.154;9.280;2022-12-18T10:31:51;101064.84;;;-1.77;100.00
13080;BME280;6606;49.154;9.280;2022-12-18T10:34:33;101060.56;;;-1.74;100.00
13080;BME280;6606;49.154;9.280;2022-12-18T10:37:17;101056.81;;;-2.24;100.00
13080;BME280;6606;49.154;9.280;2022-12-18T10:40:09;101061.53;;;-2.07;100.00
13080;BME280;6606;49.154;9.280;2022-12-18T10:43:03;101065.34;;;-1.91;100.00
13080;BME280;6606;49.154;9.280;2022-12-18T10:45:59;101080.38;;;-1.80;100.00
13080;BME280;6606;49.154;9.280;2022-12-18T10:48:50;101068.00;;;-1.88;100.00
13080;BME280;6606;49.154;9.280;2022-12-18T10:51:35;101055.19;;;-1.81;100.00
13080;BME280;6606;49.154;9.280;2022-12-18T10:54:21;101058.25;;;-1.61;100.00
13080;BME280;6606;49.154;9.280;2022-12-18T10:57:28;101052.38;;;-1.52;100.00
13080;BME280;6606;49.154;9.280;2022-12-18T11:00:24;101041.50;;;-1.73;100.00
13080;BME280;6606;49.154;9.280;2022-12-18T11:03:29;101037.25;;;-1.29;100.00
13080;BME280;6606;49.154;9.280;2022-12-18T11:06:13;101034.00;;;-1.17;100.00
13080;BME280;6606;49.154;9.280;2022-12-18T11:08:59;101035.97;;;-1.04;100.00
13080;BME280;6606;49.154;9.280;2022-12-18T11:11:41;101033.84;;;-0.79;100.00
13080;BME280;6606;49.154;9.280;2022-12-18T11:14:32;101025.13;;;-0.80;100.00
13080;BME280;6606;49.154;9.280;2022-12-18T11:17:19;101028.16;;;-1.05;100.00
13080;BME280;6606;49.154;9.280;2022-12-18T11:20:04;101015.41;;;-0.92;100.00
13080;BME280;6606;49.154;9.280;2022-12-18T11:22:55;101015.44;;;-0.38;100.00
13080;BME280;6606;49.154;9.280;2022-12-18T11:25:38;101014.72;;;-0.80;100.00
13080;BME280;6606;49.154;9.280;2022-12-18T11:28:29;101012.69;;;-0.48;100.00
13080;BME280;6606;49.154;9.280;2022-12-18T11:31:22;101010.72;;;-0.61;100.00
13080;BME280;6606;49.154;9.280;2022-12-18T11:34:10;101012.91;;;-0.85;100.00
13080;BME280;6606;49.154;9.280;2022-12-18T11:36:54;101009.88;;;-0.58;100.00
13080;BME280;6606;49.154;9.280;2022-12-18T11:39:38;101007.56;;;-0.41;100.00
13080;BME280;6606;49.154;9.280;2022-12-18T11:42:24;101003.72;;;-0.65;100.00
13080;BME280;6606;49.154;9.280;2022-12-18T11:45:23;101001.53;;;-0.39;100.00
13080;BME280;6606;49.154;9.280;2022-12-18T11:48:14;100990.88;;;-0.54;100.00
13080;BME280;6606;49.154;9.280;2022-12-18T11:50:59;100978.38;;;-0.75;100.00
13080;BME280;6606;49.154;9.280;2022-12-18T11:53:42;100982.28;;;-0.49;100.00
13080;BME280;6606;49.154;9.280;2022-12-18T11:56:30;100978.94;;;-0.40;100.00
13080;BME280;6606;49.154;9.280;2022-12-18T11:59:23;100977.19;;;-0.41;100.00
13080;BME280;6606;49.154;9.280;2022-12-18T12:02:25;100989.19;;;-0.52;100.00
13080;BME280;6606;49.154;9.280;2022-12-18T12:05:34;100978.53;;;-0.10;100.00
13080;BME280;6606;49.154;9.280;2022-12-18T12:08:23;100970.78;;;-0.05;100.00
13080;BME280;6606;49.154;9.280;2022-12-18T12:11:15;100965.56;;;-0.05;100.00
13080;BME280;6606;49.154;9.280;2022-12-18T12:14:12;100953.66;;;0.15;100.00
13080;BME280;6606;49.154;9.280;2022-12-18T12:17:00;100957.16;;;-0.47;100.00
13080;BME280;6606;49.154;9.280;2022-12-18T12:19:50;100945.13;;;-0.38;100.00
13080;BME280;6606;49.154;9.280;2022-12-18T12:22:43;100956.22;;;-0.50;100.00
13080;BME280;6606;49.154;9.280;2022-12-18T12:25:37;100962.19;;;0.02;100.00
13080;BME280;6606;49.154;9.280;2022-12-18T12:28:31;100968.41;;;0.12;100.00
13080;BME280;6606;49.154;9.280;2022-12-18T12:31:26;100968.56;;;0.24;100.00
13080;BME280;6606;49.154;9.280;2022-12-18T12:34:16;100960.72;;;0.22;100.00
13080;BME280;6606;49.154;9.280;2022-12-18T12:37:11;100951.16;;;0.23;100.00
13080;BME280;6606;49.154;9.280;2022-12-18T12:39:57;100947.03;;;0.40;100.00
13080;BME280;6606;49.154;9.280;2022-12-18T12:42:44;100948.59;;;0.25;100.00
13080;BME280;6606;49.154;9.280;2022-12-18T12:45:48;100954.88;;;0.43;100.00
13080;BME280;6606;49.154;9.280;2022-12-18T12:48:36;100953.88;;;0.34;100.00
13080;BME280;6606;49.154;9.280;2022-12-18T12:51:21;100958.34;;;0.41;100.00
13080;BME280;6606;49.154;9.280;2022-12-18T12:54:06;100959.34;;;0.55;100.00
13080;BME280;6606;49.154;9.280;2022-12-18T12:56:58;100965.25;;;0.37;100.00
13080;BME280;6606;49.154;9.280;2022-12-18T12:59:47;100962.81;;;0.53;100.00
13080;BME280;6606;49.154;9.280;2022-12-18T13:02:35;100960.19;;;0.53;100.00
13080;BME280;6606;49.154;9.280;2022-12-18T13:05:23;100960.19;;;0.53;100.00
13080;BME280;6606;49.154;9.280;2022-12-18T13:08:09;100956.84;;;0.63;100.00
13080;BME280;6606;49.154;9.280;2022-12-18T13:10:52;100955.09;;;0.62;100.00
13080;BME280;6606;49.154;9.280;2022-12-18T13:13:56;100952.09;;;0.27;100.00
13080;BME280;6606;49.154;9.280;2022-12-18T13:16:37;100951.38;;;0.41;100.00
13080;BME280;6606;49.154;9.280;2022-12-18T13:19:23;100960.13;;;0.45;100.00
13080;BME280;6606;49.154;9.280;2022-12-18T13:22:20;100965.25;;;0.37;100.00
13080;BME280;6606;49.154;9.280;2022-12-18T13:25:33;100946.72;;;0.14;100.00
13080;BME280;6606;49.154;9.280;2022-12-18T13:28:18;100949.53;;;0.34;100.00
13080;BME280;6606;49.154;9.280;2022-12-18T13:31:03;100949.50;;;0.31;100.00
13080;BME280;6606;49.154;9.280;2022-12-18T13:33:46;100950.34;;;0.27;100.00
13080;BME280;6606;49.154;9.280;2022-12-18T13:36:30;100937.31;;;0.27;100.00
13080;BME280;6606;49.154;9.280;2022-12-18T13:39:31;100932.19;;;0.36;100.00
13080;BME280;6606;49.154;9.280;2022-12-18T13:42:37;100932.09;;;0.27;100.00
13080;BME280;6606;49.154;9.280;2022-12-18T13:45:45;100927.06;;;0.42;100.00
13080;BME280;6606;49.154;9.280;2022-12-18T13:48:32;100929.50;;;0.29;100.00
13080;BME280;6606;49.154;9.280;2022-12-18T13:51:17;100930.38;;;0.28;100.00
13080;BME280;6606;49.154;9.280;2022-12-18T13:54:00;100935.28;;;0.03;100.00
13080;BME280;6606;49.154;9.280;2022-12-18T13:56:45;100926.78;;;0.21;100.00
13080;BME280;6606;49.154;9.280;2022-12-18T13:59:34;100932.00;;;0.19;100.00
13080;BME280;6606;49.154;9.280;2022-12-18T14:02:17;100932.84;;;0.18;100.00
13080;BME280;6606;49.154;9.280;2022-12-18T14:05:04;100918.19;;;0.28;100.00
13080;BME280;6606;49.154;9.280;2022-12-18T14:07:45;100918.97;;;0.19;100.00
13080;BME280;6606;49.154;9.280;2022-12-18T14:10:27;100928.38;;;0.07;100.00
13080;BME280;6606;49.154;9.280;2022-12-18T14:13:10;100932.78;;;0.11;100.00
13080;BME280;6606;49.154;9.280;2022-12-18T14:15:53;100928.72;;;-0.31;100.00
13080;BME280;6606;49.154;9.280;2022-12-18T14:18:42;100920.81;;;-0.37;100.00
13080;BME280;6606;49.154;9.280;2022-12-18T14:21:28;100926.72;;;-0.49;100.00
13080;BME280;6606;49.154;9.280;2022-12-18T14:24:14;100931.25;;;-0.36;100.00
13080;BME280;6606;49.154;9.280;2022-12-18T14:27:13;100930.34;;;-0.38;100.00